»·PEaware :: N614FT KDVT-KINW

N614FT :: KDVT-KINW

FLIGHT INFORMATION

Flight Status: Arrived
Operator: Privately registered:
United States
More flights under this callsign
Pilot: Carlos A. (16805)
Aircraft: PIPER PA-31/31P NAVAJO CHIEFTAIN
(PA31)
More flights by this aircraft type
Origin: KDVT Phoenix Deer Valley
United States
Destination: KINW Winslow-Lindbergh Regl
United States
More flights between these airports :: More routes between these airports
Route: DVT3 PXR V95 INW
File this flight plan on PilotEdge
Remarks: Arizona Alphabet Challenge
Altitude:
(Current/Filed)
11,000ft
Speed:
(Current/Filed)
180kts
Departed: 25-Sep-23 03:24 PM
Arrived: 25-Sep-23 04:12 PM
Distance/Time
Traveled:
110nm/0:48
Distance/Time
To Go:
Arrived

Flight Plot

Page will automatically refresh every two minutes.

Flight plan parsing failed; only flown route is shown


Map Options




Map Legend


Flown Route
Filed Route
Departure Airport
Arrival Airport
Navaid (VOR, NDB)
Fix

Horizontal Profiles

Position Reports

Time Latitude Longitude Heading Altitude Ground
Speed
25-Sep-23 14:48 33.686013 -112.080321 91 1482ft 0kts
25-Sep-23 14:49 33.686013 -112.080320 91 1482ft 0kts
25-Sep-23 14:50 33.686013 -112.080318 91 1482ft 0kts
25-Sep-23 14:51 33.686013 -112.080316 91 1482ft 0kts
25-Sep-23 14:52 33.686013 -112.080314 91 1482ft 0kts
25-Sep-23 14:53 33.686013 -112.080312 91 1482ft 0kts
25-Sep-23 14:54 33.686013 -112.080310 91 1482ft 0kts
25-Sep-23 14:55 33.686012 -112.080308 91 1482ft 0kts
25-Sep-23 14:56 33.686012 -112.080306 91 1482ft 0kts
25-Sep-23 14:57 33.686012 -112.080305 91 1482ft 0kts
25-Sep-23 14:58 33.686012 -112.080303 91 1482ft 0kts
25-Sep-23 14:59 33.686012 -112.080301 91 1482ft 0kts
25-Sep-23 15:00 33.686012 -112.080299 91 1482ft 0kts
25-Sep-23 15:01 33.686012 -112.080297 91 1482ft 0kts
25-Sep-23 15:02 33.686011 -112.080256 92 1482ft 0kts
25-Sep-23 15:03 33.686128 -112.080225 271 1482ft 0kts
25-Sep-23 15:04 33.686130 -112.080265 272 1482ft 0kts
25-Sep-23 15:05 33.686131 -112.080284 272 1482ft 0kts
25-Sep-23 15:06 33.686131 -112.080295 272 1482ft 0kts
25-Sep-23 15:07 33.686131 -112.080298 272 1482ft 0kts
25-Sep-23 15:08 33.686131 -112.080302 272 1482ft 0kts
25-Sep-23 15:09 33.686132 -112.080306 272 1482ft 0kts
25-Sep-23 15:10 33.686132 -112.080309 272 1482ft 0kts
25-Sep-23 15:11 33.686132 -112.080314 272 1482ft 0kts
25-Sep-23 15:12 33.686369 -112.081025 355 1482ft 3kts
25-Sep-23 15:13 33.686814 -112.079078 1 1482ft 3kts
25-Sep-23 15:14 33.687454 -112.074702 18 1482ft 8kts
25-Sep-23 15:16 33.689522 -112.074877 354 1482ft 7kts
25-Sep-23 15:17 33.689616 -112.074889 353 1482ft 0kts
25-Sep-23 15:18 33.689619 -112.074889 353 1482ft 0kts
25-Sep-23 15:19 33.689622 -112.074889 353 1482ft 0kts
25-Sep-23 15:20 33.689624 -112.074890 353 1482ft 0kts
25-Sep-23 15:21 33.689627 -112.074890 353 1482ft 0kts
25-Sep-23 15:22 33.689629 -112.074890 353 1482ft 0kts
25-Sep-23 15:23 33.689701 -112.074901 352 1482ft 3kts
25-Sep-23 15:24 33.689679 -112.080798 265 1520ft 79kts
25-Sep-23 15:25 33.702548 -112.093563 55 2516ft 115kts
25-Sep-23 15:26 33.714598 -112.055010 68 3434ft 132kts
25-Sep-23 15:27 33.749802 -112.050235 338 4140ft 147kts
25-Sep-23 15:28 33.753264 -112.086224 200 5177ft 146kts
25-Sep-23 15:29 33.718601 -112.074613 158 6594ft 133kts
25-Sep-23 15:30 33.685746 -112.054453 123 7705ft 150kts
25-Sep-23 15:31 33.692593 -112.007159 68 9423ft 138kts
25-Sep-23 15:32 33.706732 -111.959326 70 10663ft 152kts
25-Sep-23 15:33 33.724621 -111.903062 70 10995ft 202kts
25-Sep-23 15:34 33.748757 -111.837947 64 11060ft 234kts
25-Sep-23 15:35 33.773178 -111.765576 70 11010ft 236kts
25-Sep-23 15:36 33.815274 -111.708482 36 11058ft 230kts
25-Sep-23 15:37 33.865927 -111.661509 36 11117ft 230kts
25-Sep-23 15:38 33.921345 -111.621031 30 10929ft 233kts
25-Sep-23 15:39 33.973337 -111.575130 33 10907ft 229kts
25-Sep-23 15:40 34.027920 -111.536640 30 10953ft 223kts
25-Sep-23 15:41 34.082602 -111.500126 27 11005ft 227kts
25-Sep-23 15:42 34.138389 -111.464002 31 10961ft 226kts
25-Sep-23 15:43 34.192694 -111.426786 26 10854ft 229kts
25-Sep-23 15:44 34.249597 -111.397513 26 11140ft 221kts
25-Sep-23 15:44 34.287592 -111.368312 34 11258ft 218kts
25-Sep-23 15:46 34.350997 -111.324073 31 11114ft 224kts
25-Sep-23 15:47 34.400371 -111.278134 40 11118ft 222kts
25-Sep-23 15:48 34.454103 -111.240354 27 11108ft 224kts
25-Sep-23 15:49 34.508351 -111.201297 30 10992ft 224kts
25-Sep-23 15:49 34.553523 -111.170914 30 11068ft 223kts
25-Sep-23 15:50 34.607017 -111.131919 31 11061ft 221kts
25-Sep-23 15:52 34.669703 -111.086738 34 11001ft 224kts
25-Sep-23 15:53 34.716503 -111.049856 26 10966ft 181kts
25-Sep-23 15:53 34.751939 -111.025795 30 10910ft 172kts
25-Sep-23 15:54 34.793263 -110.995082 32 10798ft 171kts
25-Sep-23 15:55 34.834520 -110.966216 39 10609ft 174kts
25-Sep-23 15:56 34.872383 -110.931347 37 10242ft 165kts
25-Sep-23 15:57 34.912027 -110.911246 335 9821ft 154kts
25-Sep-23 15:58 34.945423 -110.942991 317 9953ft 160kts
25-Sep-23 15:59 34.982148 -110.974328 330 9532ft 164kts
25-Sep-23 16:00 35.022453 -110.994886 349 8806ft 156kts
25-Sep-23 16:01 35.065296 -110.999875 3 8147ft 152kts
25-Sep-23 16:02 35.105381 -110.988852 42 8071ft 150kts
25-Sep-23 16:03 35.115371 -110.942972 91 8161ft 144kts
25-Sep-23 16:04 35.102587 -110.896867 120 7885ft 149kts
25-Sep-23 16:05 35.083551 -110.852623 117 7230ft 145kts
25-Sep-23 16:06 35.064190 -110.809751 104 6630ft 141kts
25-Sep-23 16:07 35.049228 -110.768143 122 5929ft 129kts
25-Sep-23 16:08 35.025641 -110.748624 223 5406ft 115kts
25-Sep-23 16:09 35.005442 -110.775041 167 5621ft 118kts
25-Sep-23 16:10 35.011311 -110.743957 56 5129ft 106kts
25-Sep-23 16:11 35.018309 -110.729754 57 4945ft 14kts
25-Sep-23 16:12 35.020493 -110.723676 139 4945ft 2kts
25-Sep-23 16:13 35.020488 -110.723671 139 4945ft 0kts
25-Sep-23 16:14 35.019715 -110.721319 153 4945ft 0kts
25-Sep-23 16:15 35.019713 -110.721318 153 4945ft 0kts
25-Sep-23 16:16 35.019712 -110.721317 153 4945ft 0kts
25-Sep-23 16:17 35.019712 -110.721317 153 4945ft 0kts
25-Sep-23 16:18 32.126033 -110.944000 310 2647ft 0kts

Navigation Log

Ident Type
Flight plan parsing failed, navigation log unavailable